TimeEDT,TemperatureF,Dew PointF,Humidity,Sea Level PressureIn,VisibilityMPH,Wind Direction,Wind SpeedMPH,Gust SpeedMPH,PrecipitationIn,Events,Conditions,WindDirDegrees,DateUTC
12:53 AM,36.0,30.0,79,30.03,10.0,South,11.5,20.7,N/A,,Overcast,170,2013-03-12 04:53:00
1:53 AM,35.1,30.9,85,30.01,10.0,SSE,12.7,-,N/A,,Overcast,150,2013-03-12 05:53:00
2:53 AM,35.1,30.9,85,30.01,10.0,SSE,12.7,-,N/A,,Partly Cloudy,150,2013-03-12 06:53:00
3:53 AM,35.1,32.0,89,30.01,10.0,SSE,11.5,-,N/A,,Overcast,160,2013-03-12 07:53:00
4:16 AM,35.6,32.0,87,29.98,10.0,SSE,11.5,-,N/A,,Mostly Cloudy,150,2013-03-12 08:16:00
4:53 AM,36.0,32.0,86,30.00,10.0,SSE,10.4,-,N/A,,Clear,150,2013-03-12 08:53:00
5:53 AM,34.0,32.0,92,30.00,10.0,SSE,12.7,-,N/A,,Clear,150,2013-03-12 09:53:00
6:50 AM,35.6,32.0,87,29.98,10.0,SSE,13.8,-,N/A,,Mostly Cloudy,150,2013-03-12 10:50:00
6:53 AM,35.1,32.0,89,30.01,10.0,SSE,12.7,-,N/A,,Mostly Cloudy,150,2013-03-12 10:53:00
7:22 AM,35.6,33.8,93,29.98,10.0,SSE,11.5,-,N/A,,Overcast,150,2013-03-12 11:22:00
7:40 AM,35.6,33.8,93,29.98,10.0,SSE,11.5,-,N/A,,Overcast,150,2013-03-12 11:40:00
7:53 AM,36.0,33.1,89,30.02,10.0,SSE,12.7,-,N/A,,Overcast,150,2013-03-12 11:53:00
8:53 AM,36.0,34.0,93,30.02,10.0,SSE,11.5,-,N/A,,Overcast,150,2013-03-12 12:53:00
9:53 AM,37.9,34.0,86,30.01,10.0,SSE,12.7,-,N/A,,Overcast,150,2013-03-12 13:53:00
10:23 AM,39.2,35.6,87,29.98,10.0,SSE,15.0,-,N/A,,Overcast,160,2013-03-12 14:23:00
10:53 AM,41.0,35.1,79,30.00,10.0,South,15.0,21.9,N/A,,Overcast,170,2013-03-12 14:53:00
11:53 AM,39.9,36.0,86,30.00,8.0,SSE,17.3,-,0.00,Rain,Light Rain,150,2013-03-12 15:53:00
12:08 PM,39.2,37.4,93,29.97,8.0,SSE,16.1,-,N/A,Rain,Light Rain,150,2013-03-12 16:08:00
12:53 PM,39.0,37.0,93,29.99,6.0,SSE,16.1,-,0.01,Rain,Light Rain,150,2013-03-12 16:53:00
1:00 PM,37.4,37.4,100,29.96,4.0,SSE,13.8,-,0.00,Rain,Light Rain,150,2013-03-12 17:00:00
1:05 PM,37.4,37.4,100,29.95,2.0,SE,13.8,-,0.00,Rain,Light Rain,140,2013-03-12 17:05:00
1:13 PM,37.4,37.4,100,29.96,1.5,SSE,15.0,-,0.00,Rain,Light Rain,150,2013-03-12 17:13:00
1:17 PM,37.4,37.4,100,29.96,0.8,SSE,16.1,-,0.00,Rain,Light Rain,150,2013-03-12 17:17:00
1:53 PM,37.9,37.0,97,29.98,0.8,SSE,15.0,-,0.01,Rain,Light Rain,150,2013-03-12 17:53:00
2:37 PM,39.2,39.2,100,29.93,1.5,SSE,18.4,-,0.01,Rain,Light Rain,160,2013-03-12 18:37:00
2:39 PM,39.2,39.2,100,29.93,2.5,SSE,18.4,-,0.01,Rain,Light Rain,160,2013-03-12 18:39:00
2:46 PM,39.2,39.2,100,29.93,9.0,SSE,16.1,25.3,0.01,Rain,Light Rain,160,2013-03-12 18:46:00
2:53 PM,39.9,39.0,97,29.96,10.0,SSE,17.3,26.5,0.02,Rain,Light Rain,160,2013-03-12 18:53:00
3:49 PM,39.2,39.2,100,29.92,1.8,SSE,16.1,27.6,0.01,Rain,Light Rain,160,2013-03-12 19:49:00
3:53 PM,39.9,39.0,97,29.95,1.2,SSE,18.4,-,0.01,Rain,Light Rain,160,2013-03-12 19:53:00
4:02 PM,39.2,39.2,100,29.93,1.8,SSE,16.1,-,0.00,Rain,Light Rain,160,2013-03-12 20:02:00
4:08 PM,39.2,39.2,100,29.93,3.0,SSE,16.1,-,0.00,Rain,Light Rain,160,2013-03-12 20:08:00
4:15 PM,39.2,39.2,100,29.93,1.5,SSE,15.0,-,0.01,Rain,Light Rain,150,2013-03-12 20:15:00
4:20 PM,39.2,39.2,100,29.93,0.8,SSE,15.0,-,0.01,Rain,Light Rain,150,2013-03-12 20:20:00
4:53 PM,39.9,39.0,97,29.95,1.5,SSE,18.4,-,0.03,Rain,Light Rain,160,2013-03-12 20:53:00
4:58 PM,41.0,39.2,93,29.92,2.0,SSE,16.1,-,0.00,Rain,Light Rain,160,2013-03-12 20:58:00
5:06 PM,41.0,39.2,93,29.92,5.0,SSE,15.0,-,0.00,Rain,Light Rain,160,2013-03-12 21:06:00
5:17 PM,41.0,39.2,93,29.92,6.0,SSE,13.8,-,0.00,Rain,Light Rain,160,2013-03-12 21:17:00
5:42 PM,39.2,39.2,100,29.92,7.0,SSE,13.8,23.0,0.00,Rain,Light Rain,160,2013-03-12 21:42:00
5:53 PM,39.9,39.0,97,29.94,10.0,SSE,13.8,-,0.00,,Overcast,160,2013-03-12 21:53:00
6:01 PM,39.2,39.2,100,29.91,10.0,SSE,16.1,-,N/A,,Overcast,150,2013-03-12 22:01:00
6:51 PM,41.0,39.2,93,29.91,10.0,SSE,16.1,-,0.01,Rain,Light Rain,150,2013-03-12 22:51:00
6:53 PM,41.0,39.0,93,29.93,10.0,SSE,15.0,23.0,0.01,Rain,Light Rain,150,2013-03-12 22:53:00
7:53 PM,39.0,37.9,96,29.93,9.0,SSE,15.0,-,0.02,Rain,Light Rain,150,2013-03-12 23:53:00
8:47 PM,39.2,37.4,93,29.89,1.8,SSE,17.3,-,0.01,Rain,Light Rain,150,2013-03-13 00:47:00
8:49 PM,39.2,37.4,93,29.88,1.2,SSE,19.6,-,0.01,Rain,Light Rain,150,2013-03-13 00:49:00
8:53 PM,39.0,37.9,96,29.90,0.8,SSE,18.4,25.3,0.01,Rain,Light Rain,150,2013-03-13 00:53:00
9:26 PM,39.2,37.4,93,29.87,1.5,SSE,16.1,-,0.00,,Overcast,150,2013-03-13 01:26:00
9:28 PM,39.2,37.4,93,29.87,2.0,SE,15.0,-,0.00,,Overcast,140,2013-03-13 01:28:00
9:42 PM,39.2,37.4,93,29.87,1.5,SSE,13.8,-,0.00,,Overcast,150,2013-03-13 01:42:00
9:49 PM,37.4,37.4,100,29.87,2.0,SSE,15.0,-,0.00,,Overcast,150,2013-03-13 01:49:00
9:53 PM,37.9,37.9,100,29.89,2.0,SSE,13.8,-,0.00,Rain,Light Rain,150,2013-03-13 01:53:00
9:56 PM,37.4,37.4,100,29.87,1.5,SSE,12.7,-,0.00,Rain,Light Rain,150,2013-03-13 01:56:00
10:03 PM,37.4,37.4,100,29.86,1.0,SSE,12.7,-,0.00,Rain,Light Rain,150,2013-03-13 02:03:00
10:14 PM,39.2,37.4,93,29.85,0.8,SSE,13.8,-,0.00,Rain,Light Rain,150,2013-03-13 02:14:00
10:53 PM,39.0,37.9,96,29.85,0.8,SSE,15.0,-,0.02,Rain,Light Rain,150,2013-03-13 02:53:00
11:53 PM,39.0,39.0,100,29.81,0.8,SSE,12.7,-,0.03,Rain,Light Rain,150,2013-03-13 03:53:00